createdAt,value
2017-07-04T00:00:40.565Z,0
2017-07-04T00:01:42.628Z,0
2017-07-04T00:02:44.650Z,0
2017-07-04T00:03:46.697Z,0
2017-07-04T00:04:48.747Z,0
2017-07-04T00:05:50.792Z,0
2017-07-04T00:06:52.836Z,0
2017-07-04T00:07:54.879Z,0
2017-07-04T00:08:56.927Z,0
2017-07-04T00:09:58.970Z,0
2017-07-04T00:11:01.015Z,0
2017-07-04T00:12:03.061Z,0
2017-07-04T00:13:05.106Z,0
2017-07-04T00:14:07.151Z,0
2017-07-04T00:15:09.194Z,0
2017-07-04T00:16:11.237Z,0
2017-07-04T00:17:13.281Z,0
2017-07-04T00:18:15.327Z,0
2017-07-04T00:19:17.373Z,0
2017-07-04T00:20:19.415Z,0
2017-07-04T00:21:21.465Z,0
2017-07-04T00:22:23.509Z,0
2017-07-04T00:23:25.549Z,0
2017-07-04T00:24:27.596Z,0
2017-07-04T00:25:29.639Z,0
2017-07-04T00:26:31.687Z,0
2017-07-04T00:27:33.736Z,0
2017-07-04T00:28:35.781Z,0
2017-07-04T00:29:37.830Z,0
2017-07-04T00:30:39.871Z,0
2017-07-04T00:31:42.255Z,0
2017-07-04T00:32:44.302Z,0
2017-07-04T00:33:46.386Z,0
2017-07-04T00:34:48.393Z,0
2017-07-04T00:35:50.438Z,0
2017-07-04T00:36:52.483Z,0
2017-07-04T00:37:54.529Z,0
2017-07-04T00:38:56.575Z,0
2017-07-04T00:39:58.619Z,0
2017-07-04T00:41:00.664Z,0
2017-07-04T00:42:02.709Z,0
2017-07-04T00:43:04.754Z,0
2017-07-04T00:44:07.160Z,0
2017-07-04T00:45:09.212Z,0
2017-07-04T00:46:11.255Z,0
2017-07-04T00:47:13.301Z,0
2017-07-04T00:48:15.347Z,0
2017-07-04T00:49:17.390Z,0
2017-07-04T00:50:19.436Z,0
2017-07-04T00:51:21.480Z,0
2017-07-04T00:52:23.531Z,0
2017-07-04T00:53:25.577Z,0
2017-07-04T00:54:27.616Z,0
2017-07-04T00:55:29.662Z,0
2017-07-04T00:56:31.712Z,0
2017-07-04T00:57:33.759Z,0
2017-07-04T00:58:35.806Z,0
2017-07-04T00:59:37.846Z,0
2017-07-04T01:00:39.891Z,0
2017-07-04T01:01:41.939Z,0
2017-07-04T01:02:43.983Z,0
2017-07-04T01:03:46.026Z,0
2017-07-04T01:04:48.076Z,0
2017-07-04T01:05:50.119Z,0
2017-07-04T01:06:52.163Z,0
2017-07-04T01:07:54.205Z,0
2017-07-04T01:08:56.251Z,0
2017-07-04T01:09:58.295Z,0
2017-07-04T01:11:00.334Z,0
2017-07-04T01:12:02.378Z,0
2017-07-04T01:13:04.434Z,0
2017-07-04T01:14:06.474Z,0
2017-07-04T01:15:08.522Z,0
2017-07-04T01:16:10.567Z,0
2017-07-04T01:17:12.607Z,0
2017-07-04T01:18:14.648Z,0
2017-07-04T01:19:16.692Z,0
2017-07-04T01:20:18.738Z,0
2017-07-04T01:21:20.781Z,0
2017-07-04T01:22:22.830Z,0
2017-07-04T01:23:24.874Z,0
2017-07-04T01:24:26.919Z,0
2017-07-04T01:25:28.958Z,0
2017-07-04T01:26:31.346Z,0
2017-07-04T01:27:33.390Z,0
2017-07-04T01:28:35.439Z,0
2017-07-04T01:29:37.484Z,0
2017-07-04T01:30:39.529Z,0
2017-07-04T01:31:41.573Z,0
2017-07-04T01:32:43.672Z,0
2017-07-04T01:33:45.663Z,0
2017-07-04T01:34:47.713Z,0
2017-07-04T01:35:49.776Z,0
2017-07-04T01:36:51.816Z,0
2017-07-04T01:37:53.861Z,0
2017-07-04T01:38:55.905Z,0
2017-07-04T01:39:57.949Z,0
2017-07-04T01:40:59.991Z,0
2017-07-04T01:42:02.037Z,0
2017-07-04T01:43:04.084Z,0
2017-07-04T01:44:06.126Z,0
2017-07-04T01:45:08.171Z,0
2017-07-04T01:46:10.222Z,0
2017-07-04T01:47:12.267Z,0
2017-07-04T01:48:14.309Z,0
2017-07-04T01:49:16.350Z,0
2017-07-04T01:50:18.396Z,0
2017-07-04T01:51:20.438Z,0
2017-07-04T01:52:22.483Z,0
2017-07-04T01:53:24.530Z,0
2017-07-04T01:54:26.576Z,0
2017-07-04T01:55:28.619Z,0
2017-07-04T01:56:30.664Z,0
2017-07-04T01:57:32.707Z,0
2017-07-04T01:58:34.754Z,0
2017-07-04T01:59:36.796Z,0
2017-07-04T02:00:38.840Z,0
2017-07-04T02:01:40.885Z,0
2017-07-04T02:02:42.930Z,0
2017-07-04T02:03:44.973Z,0
2017-07-04T02:04:47.015Z,0
2017-07-04T02:05:49.401Z,0
2017-07-04T02:06:51.445Z,0
2017-07-04T02:07:53.482Z,0
2017-07-04T02:08:55.530Z,0
2017-07-04T02:09:57.576Z,0
2017-07-04T02:10:59.621Z,0
2017-07-04T02:12:01.670Z,0
2017-07-04T02:13:03.708Z,0
2017-07-04T02:14:05.751Z,0
2017-07-04T02:15:07.797Z,0
2017-07-04T02:16:09.842Z,0
2017-07-04T02:17:11.887Z,0
2017-07-04T02:18:13.931Z,0
2017-07-04T02:19:15.987Z,0
2017-07-04T02:20:18.031Z,0
2017-07-04T02:21:20.075Z,0
2017-07-04T02:22:22.124Z,0
2017-07-04T02:23:24.171Z,0
2017-07-04T02:24:26.212Z,0
2017-07-04T02:25:28.258Z,0
2017-07-04T02:26:30.302Z,0
2017-07-04T02:27:32.349Z,0
2017-07-04T02:28:34.396Z,0
2017-07-04T02:29:36.800Z,0
2017-07-04T02:30:38.848Z,0
2017-07-04T02:31:40.889Z,0
2017-07-04T02:32:42.934Z,0
2017-07-04T02:33:45.327Z,0
2017-07-04T02:34:47.368Z,0
2017-07-04T02:35:49.411Z,0
2017-07-04T02:36:51.453Z,0
2017-07-04T02:37:53.494Z,0
2017-07-04T02:38:55.541Z,0
2017-07-04T02:39:57.583Z,1
2017-07-04T02:40:59.637Z,1
2017-07-04T02:42:01.680Z,1
2017-07-04T02:43:04.060Z,1
2017-07-04T02:44:06.103Z,1
2017-07-04T02:45:08.144Z,1
2017-07-04T02:46:10.188Z,1
2017-07-04T02:47:12.237Z,1
2017-07-04T02:48:14.280Z,1
2017-07-04T02:49:16.326Z,2
2017-07-04T02:50:18.422Z,2
2017-07-04T02:51:20.768Z,2
2017-07-04T02:52:22.812Z,2
2017-07-04T02:53:24.855Z,2
2017-07-04T02:54:26.901Z,2
2017-07-04T02:55:28.943Z,3
2017-07-04T02:56:30.989Z,3
2017-07-04T02:57:33.036Z,3
2017-07-04T02:58:35.086Z,3
2017-07-04T02:59:37.132Z,3
2017-07-04T03:00:39.518Z,4
2017-07-04T03:01:41.568Z,4
2017-07-04T03:02:43.615Z,4
2017-07-04T03:03:45.658Z,4
2017-07-04T03:04:47.704Z,5
2017-07-04T03:05:49.750Z,5
2017-07-04T03:06:51.799Z,5
2017-07-04T03:07:53.842Z,5
2017-07-04T03:08:55.888Z,6
2017-07-04T03:09:57.935Z,6
2017-07-04T03:10:59.979Z,6
2017-07-04T03:12:02.017Z,7
2017-07-04T03:13:04.058Z,7
2017-07-04T03:14:06.107Z,7
2017-07-04T03:15:08.151Z,8
2017-07-04T03:16:10.196Z,8
2017-07-04T03:17:12.243Z,8
2017-07-04T03:18:14.291Z,8
2017-07-04T03:19:16.338Z,9
2017-07-04T03:20:18.386Z,9
2017-07-04T03:21:20.433Z,9
2017-07-04T03:22:22.483Z,10
2017-07-04T03:23:24.524Z,10
2017-07-04T03:24:26.571Z,11
2017-07-04T03:25:28.619Z,11
2017-07-04T03:26:30.667Z,11
2017-07-04T03:27:32.713Z,11
2017-07-04T03:28:34.762Z,11
2017-07-04T03:29:36.808Z,12
2017-07-04T03:30:38.854Z,12
2017-07-04T03:31:40.900Z,13
2017-07-04T03:32:42.942Z,13
2017-07-04T03:33:44.988Z,14
2017-07-04T03:34:47.037Z,14
2017-07-04T03:35:49.084Z,14
2017-07-04T03:36:51.128Z,15
2017-07-04T03:37:53.174Z,15
2017-07-04T03:38:55.222Z,15
2017-07-04T03:39:57.265Z,16
2017-07-04T03:40:59.311Z,16
2017-07-04T03:42:01.364Z,16
2017-07-04T03:43:03.410Z,17
2017-07-04T03:44:05.457Z,17
2017-07-04T03:45:07.499Z,17
2017-07-04T03:46:09.548Z,18
2017-07-04T03:47:11.597Z,18
2017-07-04T03:48:13.639Z,18
2017-07-04T03:49:15.683Z,19
2017-07-04T03:50:17.727Z,19
2017-07-04T03:51:19.771Z,19
2017-07-04T03:52:21.817Z,20
2017-07-04T03:53:23.864Z,20
2017-07-04T03:54:25.915Z,20
2017-07-04T03:55:27.959Z,21
2017-07-04T03:56:30.007Z,21
2017-07-04T03:57:32.052Z,21
2017-07-04T03:58:34.097Z,22
2017-07-04T03:59:36.145Z,22
2017-07-04T04:00:38.542Z,22
2017-07-04T04:01:40.591Z,23
2017-07-04T04:02:42.635Z,23
2017-07-04T04:03:44.673Z,23
2017-07-04T04:04:46.722Z,24
2017-07-04T04:05:48.772Z,24
2017-07-04T04:06:50.816Z,24
2017-07-04T04:07:52.860Z,25
2017-07-04T04:08:55.246Z,25
2017-07-04T04:09:57.294Z,25
2017-07-04T04:10:59.338Z,26
2017-07-04T04:12:01.384Z,26
2017-07-04T04:13:03.429Z,26
2017-07-04T04:14:05.479Z,27
2017-07-04T04:15:07.863Z,27
2017-07-04T04:16:09.909Z,27
2017-07-04T04:17:11.955Z,27
2017-07-04T04:18:13.998Z,27
2017-07-04T04:19:16.049Z,27
2017-07-04T04:20:18.093Z,27
2017-07-04T04:21:20.140Z,27
2017-07-04T04:22:22.187Z,28
2017-07-04T04:23:24.236Z,29
2017-07-04T04:24:26.281Z,30
2017-07-04T04:25:28.329Z,30
2017-07-04T04:26:30.378Z,30
2017-07-04T04:27:32.421Z,30
2017-07-04T04:28:34.468Z,30
2017-07-04T04:29:36.517Z,31
2017-07-04T04:30:38.565Z,31
2017-07-04T04:31:40.615Z,32
2017-07-04T04:32:42.659Z,32
2017-07-04T04:33:44.706Z,32
2017-07-04T04:34:46.750Z,33
2017-07-04T04:35:48.797Z,34
2017-07-04T04:36:50.849Z,34
2017-07-04T04:37:52.896Z,36
2017-07-04T04:38:54.942Z,38
2017-07-04T04:39:56.987Z,38
2017-07-04T04:40:59.039Z,35
2017-07-04T04:42:01.084Z,37
2017-07-04T04:43:03.129Z,38
2017-07-04T04:44:05.175Z,38
2017-07-04T04:45:07.222Z,39
2017-07-04T04:46:09.271Z,41
2017-07-04T04:47:11.317Z,43
2017-07-04T04:48:13.364Z,44
2017-07-04T04:49:15.409Z,42
2017-07-04T04:50:17.456Z,40
2017-07-04T04:51:19.509Z,37
2017-07-04T04:52:21.559Z,36
2017-07-04T04:53:23.610Z,35
2017-07-04T04:54:25.745Z,34
2017-07-04T04:55:27.937Z,32
2017-07-04T04:56:29.989Z,32
2017-07-04T04:57:32.039Z,35
2017-07-04T04:58:34.108Z,38
2017-07-04T04:59:36.158Z,41
2017-07-04T05:00:38.206Z,42
2017-07-04T05:01:40.506Z,43
2017-07-04T05:02:42.586Z,44
2017-07-04T05:03:44.697Z,45
2017-07-04T05:04:46.748Z,46
2017-07-04T05:05:50.686Z,48
2017-07-04T05:06:53.081Z,51
2017-07-04T05:07:55.467Z,52
2017-07-04T05:08:57.925Z,51
2017-07-04T05:10:00.374Z,50
2017-07-04T05:11:03.057Z,49
2017-07-04T05:12:06.433Z,47
2017-07-04T05:13:09.498Z,43
2017-07-04T05:14:12.373Z,42
2017-07-04T05:15:17.479Z,43
2017-07-04T05:16:20.538Z,47
2017-07-04T05:17:24.645Z,54
2017-07-04T05:18:28.379Z,63
2017-07-04T05:19:33.929Z,65
2017-07-04T05:20:36.541Z,70
2017-07-04T05:21:40.370Z,80
2017-07-04T05:22:43.360Z,76
2017-07-04T05:23:46.025Z,74
2017-07-04T05:24:48.258Z,61
2017-07-04T05:25:51.896Z,54
2017-07-04T05:26:55.125Z,53
2017-07-04T05:27:58.421Z,54
2017-07-04T05:29:03.838Z,51
2017-07-04T05:30:07.967Z,52
2017-07-04T05:31:10.021Z,57
2017-07-04T05:32:12.073Z,61
2017-07-04T05:33:14.123Z,60
2017-07-04T05:34:16.801Z,59
2017-07-04T05:35:19.268Z,51
2017-07-04T05:36:21.621Z,48
2017-07-04T05:37:24.091Z,48
2017-07-04T05:38:26.578Z,49
2017-07-04T05:39:29.027Z,48
2017-07-04T05:40:31.111Z,48
2017-07-04T05:41:33.176Z,47
2017-07-04T05:42:36.694Z,50
2017-07-04T05:43:40.643Z,51
2017-07-04T05:44:44.039Z,52
2017-07-04T05:45:48.215Z,52
2017-07-04T05:46:52.788Z,52
2017-07-04T05:47:57.692Z,52
2017-07-04T05:49:02.546Z,53
2017-07-04T05:50:07.399Z,53
2017-07-04T05:51:12.821Z,55
2017-07-04T05:52:17.612Z,58
2017-07-04T05:53:21.919Z,57
2017-07-04T05:54:27.084Z,59
2017-07-04T05:55:33.381Z,64
2017-07-04T05:56:40.124Z,73
2017-07-04T05:57:45.282Z,85
2017-07-04T05:58:50.965Z,93
2017-07-04T05:59:54.356Z,95
2017-07-04T06:00:59.805Z,88
2017-07-04T06:02:03.681Z,84
2017-07-04T06:03:10.679Z,82
2017-07-04T06:04:16.100Z,85
2017-07-04T06:05:21.749Z,82
2017-07-04T06:06:27.006Z,81
2017-07-04T06:07:34.152Z,81
2017-07-04T06:08:41.042Z,77
2017-07-04T06:09:46.530Z,80
2017-07-04T06:10:50.110Z,84
2017-07-04T06:11:54.448Z,86
2017-07-04T06:13:00.460Z,81
2017-07-04T06:14:05.408Z,80
2017-07-04T06:15:10.403Z,79
2017-07-04T06:16:16.429Z,76
2017-07-04T06:17:19.731Z,75
2017-07-04T06:18:22.122Z,78
2017-07-04T06:19:24.561Z,79
2017-07-04T06:20:26.829Z,77
2017-07-04T06:21:29.117Z,70
2017-07-04T06:22:31.176Z,66
2017-07-04T06:23:33.227Z,63
2017-07-04T06:24:35.276Z,64
2017-07-04T06:25:37.321Z,64
2017-07-04T06:26:39.374Z,65
2017-07-04T06:27:41.427Z,68
2017-07-04T06:28:43.475Z,70
2017-07-04T06:29:45.527Z,70
2017-07-04T06:30:47.580Z,70
2017-07-04T06:31:49.636Z,66
2017-07-04T06:32:51.685Z,63
2017-07-04T06:33:53.735Z,63
2017-07-04T06:34:56.135Z,63
2017-07-04T06:35:58.182Z,63
2017-07-04T06:37:00.233Z,63
2017-07-04T06:38:02.290Z,63
2017-07-04T06:39:04.343Z,64
2017-07-04T06:40:06.397Z,64
2017-07-04T06:41:08.450Z,64
2017-07-04T06:42:10.498Z,64
2017-07-04T06:43:12.552Z,64
2017-07-04T06:44:14.609Z,64
2017-07-04T06:45:16.660Z,64
2017-07-04T06:46:19.065Z,64
2017-07-04T06:47:21.116Z,64
2017-07-04T06:48:23.169Z,65
2017-07-04T06:49:25.221Z,66
2017-07-04T06:50:27.273Z,67
2017-07-04T06:51:29.320Z,66
2017-07-04T06:52:31.768Z,65
2017-07-04T06:53:33.775Z,65
2017-07-04T06:54:35.826Z,65
2017-07-04T06:55:37.873Z,65
2017-07-04T06:56:39.932Z,65
2017-07-04T06:57:42.328Z,66
2017-07-04T06:58:44.376Z,66
2017-07-04T06:59:46.424Z,66
2017-07-04T07:00:48.489Z,66
2017-07-04T07:01:50.543Z,67
2017-07-04T07:02:52.596Z,67
2017-07-04T07:03:54.645Z,67
2017-07-04T07:04:56.696Z,67
2017-07-04T07:05:58.750Z,67
2017-07-04T07:07:01.148Z,67
2017-07-04T07:08:03.212Z,68
2017-07-04T07:09:05.265Z,68
2017-07-04T07:10:07.309Z,68
2017-07-04T07:11:09.361Z,70
2017-07-04T07:12:11.407Z,68
2017-07-04T07:13:13.459Z,70
2017-07-04T07:14:15.509Z,70
2017-07-04T07:15:17.557Z,70
2017-07-04T07:16:19.612Z,73
2017-07-04T07:17:21.667Z,79
2017-07-04T07:18:23.723Z,91
2017-07-04T07:19:25.767Z,97
2017-07-04T07:20:28.164Z,91
2017-07-04T07:21:30.215Z,92
2017-07-04T07:22:32.260Z,101
2017-07-04T07:23:34.313Z,110
2017-07-04T07:24:36.361Z,116
2017-07-04T07:25:38.416Z,115
2017-07-04T07:26:40.463Z,123
2017-07-04T07:27:42.513Z,113
2017-07-04T07:28:44.566Z,100
2017-07-04T07:29:46.619Z,104
2017-07-04T07:30:48.670Z,110
2017-07-04T07:31:51.071Z,112
2017-07-04T07:32:53.123Z,103
2017-07-04T07:33:55.174Z,100
2017-07-04T07:34:57.225Z,106
2017-07-04T07:35:59.278Z,106
2017-07-04T07:37:01.335Z,96
2017-07-04T07:38:03.743Z,92
2017-07-04T07:39:05.791Z,105
2017-07-04T07:40:07.841Z,117
2017-07-04T07:41:09.894Z,113
2017-07-04T07:42:11.945Z,125
2017-07-04T07:43:13.999Z,154
2017-07-04T07:44:16.051Z,163
2017-07-04T07:45:18.106Z,164
2017-07-04T07:46:20.158Z,165
2017-07-04T07:47:22.209Z,167
2017-07-04T07:48:24.262Z,158
2017-07-04T07:49:26.314Z,137
2017-07-04T07:50:28.363Z,135
2017-07-04T07:51:30.416Z,164
2017-07-04T07:52:32.469Z,183
2017-07-04T07:53:34.520Z,178
2017-07-04T07:54:36.574Z,167
2017-07-04T07:55:38.632Z,173
2017-07-04T07:56:40.685Z,179
2017-07-04T07:57:42.738Z,167
2017-07-04T07:58:44.792Z,165
2017-07-04T07:59:46.839Z,165
2017-07-04T08:00:48.889Z,160
2017-07-04T08:01:50.945Z,152
2017-07-04T08:02:52.998Z,155
2017-07-04T08:03:55.053Z,152
2017-07-04T08:04:57.109Z,136
2017-07-04T08:05:59.166Z,128
2017-07-04T08:07:01.558Z,120
2017-07-04T08:08:03.625Z,112
2017-07-04T08:09:05.682Z,112
2017-07-04T08:10:07.735Z,130
2017-07-04T08:11:09.785Z,157
2017-07-04T08:12:11.837Z,176
2017-07-04T08:13:13.891Z,189
2017-07-04T08:14:15.947Z,208
2017-07-04T08:15:18.001Z,197
2017-07-04T08:16:20.062Z,175
2017-07-04T08:17:22.118Z,151
2017-07-04T08:18:24.166Z,114
2017-07-04T08:19:26.221Z,112
2017-07-04T08:20:28.277Z,134
2017-07-04T08:21:30.331Z,149
2017-07-04T08:22:32.381Z,114
2017-07-04T08:23:34.435Z,110
2017-07-04T08:24:36.486Z,134
2017-07-04T08:25:38.547Z,154
2017-07-04T08:26:40.597Z,165
2017-07-04T08:27:42.653Z,145
2017-07-04T08:28:44.707Z,128
2017-07-04T08:29:46.760Z,122
2017-07-04T08:30:48.806Z,119
2017-07-04T08:31:50.860Z,122
2017-07-04T08:32:52.917Z,116
2017-07-04T08:33:54.970Z,115
2017-07-04T08:34:57.024Z,202
2017-07-04T08:35:59.080Z,257
2017-07-04T08:37:01.476Z,206
2017-07-04T08:38:03.883Z,214
2017-07-04T08:39:05.936Z,218
2017-07-04T08:40:07.983Z,213
2017-07-04T08:41:10.040Z,125
2017-07-04T08:42:12.090Z,154
2017-07-04T08:43:14.142Z,201
2017-07-04T08:44:16.201Z,234
2017-07-04T08:45:18.257Z,238
2017-07-04T08:46:20.309Z,332
2017-07-04T08:47:22.361Z,529
2017-07-04T08:48:24.415Z,160
2017-07-04T08:49:26.469Z,146
2017-07-04T08:50:28.520Z,142
2017-07-04T08:51:30.577Z,134
2017-07-04T08:52:32.629Z,120
2017-07-04T08:53:34.683Z,119
2017-07-04T08:54:36.735Z,110
2017-07-04T08:55:38.788Z,129
2017-07-04T08:56:40.848Z,158
2017-07-04T08:57:42.904Z,196
2017-07-04T08:58:44.956Z,746
2017-07-04T08:59:47.352Z,249
2017-07-04T09:00:49.406Z,306
2017-07-04T09:01:51.457Z,233
2017-07-04T09:02:53.512Z,179
2017-07-04T09:03:55.569Z,163
2017-07-04T09:04:57.625Z,145
2017-07-04T09:05:59.672Z,138
2017-07-04T09:07:01.729Z,143
2017-07-04T09:08:03.778Z,140
2017-07-04T09:09:05.831Z,172
2017-07-04T09:10:07.885Z,819
2017-07-04T09:11:09.937Z,283
2017-07-04T09:12:11.989Z,785
2017-07-04T09:13:14.045Z,346
2017-07-04T09:14:16.102Z,511
2017-07-04T09:15:18.157Z,325
2017-07-04T09:16:20.209Z,276
2017-07-04T09:17:22.261Z,576
2017-07-04T09:18:24.321Z,927
2017-07-04T09:19:26.372Z,243
2017-07-04T09:20:28.421Z,166
2017-07-04T09:21:30.485Z,169
2017-07-04T09:22:32.534Z,178
2017-07-04T09:23:34.590Z,212
2017-07-04T09:24:36.644Z,167
2017-07-04T09:25:38.697Z,159
2017-07-04T09:26:40.792Z,158
2017-07-04T09:27:42.798Z,166
2017-07-04T09:28:44.854Z,178
2017-07-04T09:29:46.910Z,189
2017-07-04T09:30:48.962Z,195
2017-07-04T09:31:51.018Z,202
2017-07-04T09:32:53.074Z,226
2017-07-04T09:33:55.130Z,240
2017-07-04T09:34:57.181Z,217
2017-07-04T09:35:59.237Z,217
2017-07-04T09:37:01.289Z,216
2017-07-04T09:38:03.339Z,214
2017-07-04T09:39:05.398Z,231
2017-07-04T09:40:07.455Z,215
2017-07-04T09:41:09.511Z,190
2017-07-04T09:42:11.563Z,190
2017-07-04T09:43:13.618Z,202
2017-07-04T09:44:15.674Z,152
2017-07-04T09:45:17.728Z,138
2017-07-04T09:46:19.779Z,150
2017-07-04T09:47:21.838Z,170
2017-07-04T09:48:23.898Z,182
2017-07-04T09:49:25.954Z,179
2017-07-04T09:50:28.009Z,172
2017-07-04T09:51:30.067Z,146
2017-07-04T09:52:32.116Z,125
2017-07-04T09:53:34.178Z,155
2017-07-04T09:54:36.233Z,794
2017-07-04T09:55:38.287Z,825
2017-07-04T09:56:40.344Z,767
2017-07-04T09:57:42.741Z,720
2017-07-04T09:58:45.144Z,772
2017-07-04T09:59:47.201Z,781
2017-07-04T10:00:49.260Z,816
2017-07-04T10:01:51.318Z,908
2017-07-04T10:02:53.370Z,890
2017-07-04T10:03:55.425Z,300
2017-07-04T10:04:57.481Z,937
2017-07-04T10:05:59.536Z,720
2017-07-04T10:07:01.589Z,818
2017-07-04T10:08:03.650Z,998
2017-07-04T10:09:05.707Z,931
2017-07-04T10:10:07.770Z,756
2017-07-04T10:11:09.823Z,224
2017-07-04T10:12:11.883Z,179
2017-07-04T10:13:13.941Z,187
2017-07-04T10:14:15.997Z,119
2017-07-04T10:15:18.054Z,110
2017-07-04T10:16:20.113Z,99
2017-07-04T10:17:22.170Z,88
2017-07-04T10:18:24.231Z,83
2017-07-04T10:19:26.290Z,84
2017-07-04T10:20:28.351Z,91
2017-07-04T10:21:30.406Z,101
2017-07-04T10:22:32.461Z,109
2017-07-04T10:23:34.520Z,108
2017-07-04T10:24:36.576Z,109
2017-07-04T10:25:38.635Z,102
2017-07-04T10:26:40.686Z,91
2017-07-04T10:27:43.087Z,98
2017-07-04T10:28:45.145Z,118
2017-07-04T10:29:47.203Z,152
2017-07-04T10:30:49.260Z,195
2017-07-04T10:31:51.318Z,451
2017-07-04T10:32:53.374Z,560
2017-07-04T10:33:55.438Z,219
2017-07-04T10:34:57.492Z,183
2017-07-04T10:35:59.552Z,174
2017-07-04T10:37:01.609Z,186
2017-07-04T10:38:03.667Z,214
2017-07-04T10:39:05.725Z,271
2017-07-04T10:40:07.780Z,334
2017-07-04T10:41:09.839Z,503
2017-07-04T10:42:11.896Z,498
2017-07-04T10:43:13.955Z,327
2017-07-04T10:44:16.016Z,386
2017-07-04T10:45:18.073Z,1152
2017-07-04T10:46:20.131Z,959
2017-07-04T10:47:22.194Z,688
2017-07-04T10:48:24.250Z,1002
2017-07-04T10:49:26.311Z,1016
2017-07-04T10:50:28.364Z,271
2017-07-04T10:51:30.420Z,259
2017-07-04T10:52:32.477Z,176
2017-07-04T10:53:34.532Z,145
2017-07-04T10:54:36.594Z,138
2017-07-04T10:55:38.653Z,145
2017-07-04T10:56:40.710Z,165
2017-07-04T10:57:42.770Z,153
2017-07-04T10:58:44.830Z,147
2017-07-04T10:59:46.886Z,136
2017-07-04T11:00:48.947Z,139
2017-07-04T11:01:50.998Z,140
2017-07-04T11:02:53.060Z,145
2017-07-04T11:03:55.116Z,150
2017-07-04T11:04:57.176Z,165
2017-07-04T11:05:59.234Z,186
2017-07-04T11:07:01.285Z,197
2017-07-04T11:08:03.343Z,195
2017-07-04T11:09:05.403Z,208
2017-07-04T11:10:07.464Z,234
2017-07-04T11:11:09.522Z,240
2017-07-04T11:12:11.580Z,252
2017-07-04T11:13:13.635Z,271
2017-07-04T11:14:16.033Z,342
2017-07-04T11:15:18.093Z,297
2017-07-04T11:16:20.152Z,320
2017-07-04T11:17:22.551Z,380
2017-07-04T11:18:24.605Z,890
2017-07-04T11:19:26.659Z,751
2017-07-04T11:20:28.718Z,547
2017-07-04T11:21:30.773Z,878
2017-07-04T11:22:32.829Z,915
2017-07-04T11:23:34.888Z,1026
2017-07-04T11:24:36.946Z,866
2017-07-04T11:25:39.001Z,229
2017-07-04T11:26:41.061Z,215
2017-07-04T11:27:43.120Z,187
2017-07-04T11:28:45.177Z,137
2017-07-04T11:29:47.237Z,138
2017-07-04T11:30:49.295Z,110
2017-07-04T11:31:51.333Z,106
2017-07-04T11:32:53.381Z,105
2017-07-04T11:33:55.413Z,106
2017-07-04T11:34:57.452Z,112
2017-07-04T11:35:59.503Z,126
2017-07-04T11:37:01.551Z,155
2017-07-04T11:38:03.587Z,209
2017-07-04T11:39:05.622Z,234
2017-07-04T11:40:07.671Z,234
2017-07-04T11:41:09.696Z,237
2017-07-04T11:42:11.748Z,253
2017-07-04T11:43:13.789Z,293
2017-07-04T11:44:15.820Z,310
2017-07-04T11:45:17.856Z,321
2017-07-04T11:46:19.896Z,309
2017-07-04T11:47:21.943Z,319
2017-07-04T11:48:24.670Z,355
2017-07-04T11:49:26.749Z,386
2017-07-04T11:50:28.793Z,373
2017-07-04T11:51:30.828Z,338
2017-07-04T11:52:32.909Z,316
2017-07-04T11:53:34.948Z,206
2017-07-04T11:54:36.982Z,160
2017-07-04T11:55:39.042Z,156
2017-07-04T11:56:41.077Z,212
2017-07-04T11:57:43.105Z,423
2017-07-04T11:58:45.205Z,929
2017-07-04T11:59:47.233Z,916
2017-07-04T12:00:49.274Z,298
2017-07-04T12:01:51.308Z,158
2017-07-04T12:02:53.347Z,147
2017-07-04T12:03:55.721Z,147
2017-07-04T12:04:57.760Z,169
2017-07-04T12:05:59.803Z,202
2017-07-04T12:07:01.840Z,347
2017-07-04T12:08:03.871Z,235
2017-07-04T12:09:05.903Z,254
2017-07-04T12:10:07.932Z,396
2017-07-04T12:11:09.966Z,442
2017-07-04T12:12:11.998Z,283
2017-07-04T12:13:14.038Z,230
2017-07-04T12:14:16.072Z,203
2017-07-04T12:15:18.108Z,194
2017-07-04T12:16:20.140Z,196
2017-07-04T12:17:22.173Z,201
2017-07-04T12:18:24.212Z,206
2017-07-04T12:19:26.247Z,185
2017-07-04T12:20:28.279Z,175
2017-07-04T12:21:30.315Z,169
2017-07-04T12:22:32.356Z,174
2017-07-04T12:23:34.439Z,205
2017-07-04T12:24:36.482Z,246
2017-07-04T12:25:38.857Z,199
2017-07-04T12:26:40.898Z,168
2017-07-04T12:27:42.934Z,152
2017-07-04T12:28:44.969Z,156
2017-07-04T12:29:47.002Z,148
2017-07-04T12:30:49.036Z,163
2017-07-04T12:31:51.066Z,213
2017-07-04T12:32:53.099Z,258
2017-07-04T12:33:55.143Z,253
2017-07-04T12:34:57.173Z,272
2017-07-04T12:35:59.254Z,236
2017-07-04T12:37:01.297Z,208
2017-07-04T12:38:03.338Z,182
2017-07-04T12:39:05.360Z,157
2017-07-04T12:40:07.400Z,157
2017-07-04T12:41:09.437Z,165
2017-07-04T12:42:11.472Z,171
2017-07-04T12:43:13.506Z,189
2017-07-04T12:44:15.541Z,227
2017-07-04T12:45:17.576Z,290
2017-07-04T12:46:19.609Z,448
2017-07-04T12:47:21.640Z,454
2017-07-04T12:48:23.683Z,387
2017-07-04T12:49:25.718Z,316
2017-07-04T12:50:27.752Z,308
2017-07-04T12:51:29.785Z,431
2017-07-04T12:52:31.825Z,482
2017-07-04T12:53:33.866Z,325
2017-07-04T12:54:35.898Z,346
2017-07-04T12:55:37.936Z,616
2017-07-04T12:56:39.975Z,451
2017-07-04T12:57:42.009Z,743
2017-07-04T12:58:44.050Z,659
2017-07-04T12:59:46.083Z,392
2017-07-04T13:00:48.125Z,539
2017-07-04T13:01:50.159Z,332
2017-07-04T13:02:52.197Z,808
2017-07-04T13:03:54.230Z,440
2017-07-04T13:04:56.260Z,854
2017-07-04T13:05:58.298Z,492
2017-07-04T13:07:00.347Z,406
2017-07-04T13:08:02.382Z,261
2017-07-04T13:09:04.418Z,200
2017-07-04T13:10:06.454Z,167
2017-07-04T13:11:08.490Z,172
2017-07-04T13:12:10.523Z,183
2017-07-04T13:13:12.560Z,186
2017-07-04T13:14:14.952Z,185
2017-07-04T13:15:16.988Z,169
2017-07-04T13:16:19.028Z,155
2017-07-04T13:17:21.069Z,145
2017-07-04T13:18:23.108Z,144
2017-07-04T13:19:25.137Z,152
2017-07-04T13:20:27.176Z,159
2017-07-04T13:21:29.220Z,171
2017-07-04T13:22:31.258Z,189
2017-07-04T13:23:33.294Z,213
2017-07-04T13:24:35.336Z,239
2017-07-04T13:25:37.379Z,367
2017-07-04T13:26:39.412Z,280
2017-07-04T13:27:41.449Z,332
2017-07-04T13:28:43.489Z,312
2017-07-04T13:29:45.522Z,510
2017-07-04T13:30:47.556Z,393
2017-07-04T13:31:49.603Z,423
2017-07-04T13:32:51.642Z,709
2017-07-04T13:33:53.680Z,318
2017-07-04T13:34:55.719Z,284
2017-07-04T13:35:57.754Z,359
2017-07-04T13:36:59.797Z,426
2017-07-04T13:38:01.836Z,342
2017-07-04T13:39:03.883Z,400
2017-07-04T13:40:05.922Z,361
2017-07-04T13:41:07.959Z,434
2017-07-04T13:42:10.001Z,590
2017-07-04T13:43:12.041Z,367
2017-07-04T13:44:14.078Z,353
2017-07-04T13:45:16.121Z,364
2017-07-04T13:46:18.154Z,581
2017-07-04T13:47:20.195Z,582
2017-07-04T13:48:22.236Z,562
2017-07-04T13:49:24.276Z,493
2017-07-04T13:50:26.314Z,561
2017-07-04T13:51:28.355Z,598
2017-07-04T13:52:30.405Z,245
2017-07-04T13:53:32.810Z,217
2017-07-04T13:54:34.843Z,376
2017-07-04T13:55:36.883Z,258
2017-07-04T13:56:38.923Z,230
2017-07-04T13:57:40.965Z,215
2017-07-04T13:58:43.002Z,207
2017-07-04T13:59:45.038Z,205
2017-07-04T14:00:47.080Z,213
2017-07-04T14:01:49.131Z,249
2017-07-04T14:02:51.168Z,229
2017-07-04T14:03:53.211Z,221
2017-07-04T14:04:55.267Z,216
2017-07-04T14:05:57.305Z,219
2017-07-04T14:06:59.341Z,215
2017-07-04T14:08:01.380Z,224
2017-07-04T14:09:03.425Z,250
2017-07-04T14:10:05.464Z,338
2017-07-04T14:11:07.498Z,266
2017-07-04T14:12:09.540Z,314
2017-07-04T14:13:11.577Z,318
2017-07-04T14:14:13.613Z,354
2017-07-04T14:15:15.649Z,295
2017-07-04T14:16:17.691Z,288
2017-07-04T14:17:19.728Z,333
2017-07-04T14:18:21.766Z,339
2017-07-04T14:19:23.801Z,341
2017-07-04T14:20:26.188Z,384
2017-07-04T14:21:28.220Z,279
2017-07-04T14:22:30.266Z,288
2017-07-04T14:23:32.305Z,289
2017-07-04T14:24:34.343Z,328
2017-07-04T14:25:36.383Z,350
2017-07-04T14:26:38.432Z,393
2017-07-04T14:27:40.472Z,437
2017-07-04T14:28:42.523Z,495
2017-07-04T14:29:44.564Z,336
2017-07-04T14:30:46.609Z,270
2017-07-04T14:31:48.647Z,290
2017-07-04T14:32:50.684Z,316
2017-07-04T14:33:52.730Z,351
2017-07-04T14:34:54.776Z,286
2017-07-04T14:35:56.812Z,253
2017-07-04T14:36:58.857Z,299
2017-07-04T14:38:00.897Z,502
2017-07-04T14:39:03.283Z,241